createdAt,value
2023-01-15T00:00:22.721Z,8.53
2023-01-15T00:02:25.373Z,8.60
2023-01-15T00:04:40.798Z,8.63
2023-01-15T00:06:43.640Z,8.35
2023-01-15T00:08:49.603Z,8.37
2023-01-15T00:10:54.898Z,8.43
2023-01-15T00:13:07.104Z,8.43
2023-01-15T00:15:18.417Z,8.35
2023-01-15T00:17:23.395Z,8.37
2023-01-15T00:19:43.139Z,8.45
2023-01-15T00:21:51.121Z,8.35
2023-01-15T00:24:02.757Z,8.27
2023-01-15T00:26:37.329Z,8.03
2023-01-15T00:28:39.763Z,8.08
2023-01-15T00:30:57.686Z,8.22
2023-01-15T00:33:03.919Z,8.14
2023-01-15T00:35:10.491Z,8.22
2023-01-15T00:37:19.622Z,8.13
2023-01-15T00:39:26.259Z,8.00
2023-01-15T00:41:28.500Z,8.11
2023-01-15T00:43:42.780Z,7.87
2023-01-15T00:45:51.319Z,8.01
2023-01-15T00:47:53.511Z,8.06
2023-01-15T00:49:58.613Z,8.06
2023-01-15T00:52:00.717Z,7.97
2023-01-15T00:54:10.137Z,8.03
2023-01-15T00:56:12.438Z,8.03
2023-01-15T00:58:14.851Z,8.08
2023-01-15T01:00:17.636Z,8.05
2023-01-15T01:02:20.041Z,8.06
2023-01-15T01:04:22.335Z,8.13
2023-01-15T01:06:24.890Z,7.96
2023-01-15T01:08:29.858Z,8.02
2023-01-15T01:10:32.210Z,7.63
2023-01-15T01:12:44.899Z,7.80
2023-01-15T01:14:50.119Z,7.78
2023-01-15T01:17:38.916Z,7.89
2023-01-15T01:19:41.178Z,8.00
2023-01-15T01:21:47.243Z,7.94
2023-01-15T01:23:49.527Z,7.93
2023-01-15T01:25:52.279Z,8.06
2023-01-15T01:27:54.519Z,7.88
2023-01-15T01:29:56.983Z,7.82
2023-01-15T01:31:59.403Z,7.84
2023-01-15T01:34:03.874Z,7.74
2023-01-15T01:36:07.473Z,7.84
2023-01-15T01:38:09.673Z,7.91
2023-01-15T01:40:14.797Z,7.77
2023-01-15T01:42:20.849Z,7.89
2023-01-15T01:44:37.565Z,7.89
2023-01-15T01:46:42.797Z,7.93
2023-01-15T01:48:48.147Z,7.84
2023-01-15T01:50:54.509Z,7.79
2023-01-15T01:53:01.203Z,7.88
2023-01-15T01:55:07.459Z,7.70
2023-01-15T01:57:13.857Z,7.79
2023-01-15T01:59:17.931Z,7.77
2023-01-15T02:01:22.449Z,7.75
2023-01-15T02:03:35.350Z,7.69
2023-01-15T02:05:46.468Z,7.66
2023-01-15T02:07:51.704Z,7.47
2023-01-15T02:09:56.947Z,7.57
2023-01-15T02:12:12.212Z,7.53
2023-01-15T02:14:25.989Z,7.55
2023-01-15T02:16:37.765Z,7.50
2023-01-15T02:18:51.881Z,7.54
2023-01-15T02:21:01.985Z,7.44
2023-01-15T02:26:00.432Z,7.58
2023-01-15T02:28:14.228Z,7.65
2023-01-15T02:33:55.405Z,7.60
2023-01-15T02:36:01.303Z,7.43
2023-01-15T02:38:08.449Z,7.51
2023-01-15T02:40:14.919Z,7.60
2023-01-15T02:42:20.726Z,7.57
2023-01-15T02:44:27.317Z,7.36
2023-01-15T02:46:35.281Z,7.35
2023-01-15T02:48:39.692Z,7.42
2023-01-15T02:50:46.134Z,7.32
2023-01-15T02:52:56.625Z,7.26
2023-01-15T02:55:06.506Z,7.30
2023-01-15T02:57:12.656Z,7.18
2023-01-15T02:59:20.807Z,6.93
2023-01-15T03:01:30.484Z,7.04
2023-01-15T03:03:45.405Z,6.90
2023-01-15T03:06:11.633Z,6.95
2023-01-15T03:08:13.832Z,6.92
2023-01-15T03:10:16.913Z,6.61
2023-01-15T03:13:02.727Z,6.77
2023-01-15T03:15:26.712Z,6.91
2023-01-15T03:17:37.798Z,6.95
2023-01-15T03:19:49.758Z,6.73
2023-01-15T03:22:06.272Z,6.74
2023-01-15T03:24:16.000Z,6.80
2023-01-15T03:26:18.208Z,6.83
2023-01-15T03:28:26.253Z,6.85
2023-01-15T03:30:28.395Z,6.80
2023-01-15T03:32:34.059Z,6.93
2023-01-15T03:34:48.135Z,6.90
2023-01-15T03:36:52.422Z,6.83
2023-01-15T03:38:55.079Z,6.70
2023-01-15T03:41:09.649Z,6.74
2023-01-15T03:43:26.148Z,6.73
2023-01-15T03:45:38.729Z,6.78
2023-01-15T03:48:00.447Z,6.77
2023-01-15T03:50:19.459Z,6.73
2023-01-15T03:52:41.407Z,6.72
2023-01-15T03:54:53.863Z,6.72
2023-01-15T03:57:07.441Z,6.65
2023-01-15T03:59:19.535Z,6.72
2023-01-15T04:01:32.404Z,6.53
2023-01-15T04:03:42.299Z,6.62
2023-01-15T04:05:44.833Z,6.42
2023-01-15T04:07:48.262Z,6.50
2023-01-15T04:09:56.373Z,6.65
2023-01-15T04:12:00.832Z,6.53
2023-01-15T04:14:02.962Z,6.65
2023-01-15T04:16:05.433Z,6.52
2023-01-15T04:18:09.644Z,6.50
2023-01-15T04:20:12.908Z,6.61
2023-01-15T04:22:14.979Z,6.30
2023-01-15T04:24:17.024Z,6.51
2023-01-15T04:26:19.184Z,6.57
2023-01-15T04:28:21.455Z,6.59
2023-01-15T04:30:23.837Z,6.70
2023-01-15T04:32:26.226Z,6.63
2023-01-15T04:34:31.451Z,6.74
2023-01-15T04:36:38.407Z,6.91
2023-01-15T04:38:40.877Z,6.85
2023-01-15T04:41:01.303Z,7.00
2023-01-15T04:43:13.047Z,6.95
2023-01-15T04:45:15.550Z,6.71
2023-01-15T04:47:17.453Z,6.84
2023-01-15T04:49:19.500Z,6.95
2023-01-15T04:51:21.743Z,6.61
2023-01-15T04:53:23.987Z,6.64
2023-01-15T04:55:26.083Z,6.75
2023-01-15T04:57:29.720Z,6.78
2023-01-15T04:59:34.707Z,6.64
2023-01-15T05:01:37.536Z,6.55
2023-01-15T05:03:40.027Z,6.53
2023-01-15T05:05:42.001Z,6.55
2023-01-15T05:07:44.140Z,6.51
2023-01-15T05:09:47.677Z,6.65
2023-01-15T05:11:52.082Z,6.72
2023-01-15T05:13:54.854Z,6.60
2023-01-15T05:15:56.902Z,6.51
2023-01-15T05:17:58.912Z,6.58
2023-01-15T05:20:00.992Z,6.53
2023-01-15T05:22:02.937Z,6.42
2023-01-15T05:24:08.859Z,6.14
2023-01-15T05:26:11.413Z,6.25
2023-01-15T05:28:13.338Z,6.27
2023-01-15T05:30:15.629Z,6.27
2023-01-15T05:32:17.803Z,6.30
2023-01-15T05:34:20.882Z,6.31
2023-01-15T05:36:26.575Z,6.22
2023-01-15T05:38:31.463Z,6.33
2023-01-15T05:40:33.808Z,6.39
2023-01-15T05:42:38.401Z,6.51
2023-01-15T05:44:40.882Z,6.46
2023-01-15T05:46:45.050Z,6.57
2023-01-15T05:48:55.496Z,6.59
2023-01-15T05:51:45.571Z,6.40
2023-01-15T05:53:47.965Z,6.48
2023-01-15T05:55:49.989Z,6.63
2023-01-15T05:58:00.295Z,6.50
2023-01-15T06:00:06.389Z,6.53
2023-01-15T06:02:08.509Z,6.62
2023-01-15T06:04:14.427Z,6.63
2023-01-15T06:06:18.532Z,6.69
2023-01-15T06:08:21.578Z,6.46
2023-01-15T06:10:25.495Z,6.62
2023-01-15T06:12:27.479Z,6.63
2023-01-15T06:14:29.659Z,6.48
2023-01-15T06:16:35.898Z,6.56
2023-01-15T06:18:39.508Z,6.48
2023-01-15T06:20:42.850Z,6.62
2023-01-15T06:22:45.004Z,6.70
2023-01-15T06:24:50.243Z,6.78
2023-01-15T06:26:55.839Z,6.68
2023-01-15T06:28:58.098Z,6.75
2023-01-15T06:31:02.105Z,6.88
2023-01-15T06:33:05.845Z,6.89
2023-01-15T06:35:12.581Z,6.97
2023-01-15T06:37:17.449Z,6.93
2023-01-15T06:39:22.689Z,6.68
2023-01-15T06:41:38.536Z,6.79
2023-01-15T06:43:50.378Z,6.72
2023-01-15T06:46:01.688Z,6.87
2023-01-15T06:48:04.303Z,6.96
2023-01-15T06:50:09.018Z,6.89
2023-01-15T06:52:16.048Z,6.88
2023-01-15T06:54:20.419Z,6.94
2023-01-15T06:56:24.044Z,6.79
2023-01-15T06:58:28.779Z,6.76
2023-01-15T07:01:37.557Z,6.84
2023-01-15T07:03:39.671Z,6.83
2023-01-15T07:05:41.951Z,6.78
2023-01-15T07:07:44.046Z,6.88
2023-01-15T07:09:46.191Z,6.86
2023-01-15T07:11:51.230Z,6.81
2023-01-15T07:14:06.127Z,6.99
2023-01-15T07:16:27.020Z,6.82
2023-01-15T07:18:32.230Z,6.90
2023-01-15T07:20:36.817Z,6.99
2023-01-15T07:22:38.937Z,6.90
2023-01-15T07:24:43.513Z,6.71
2023-01-15T07:26:46.115Z,6.66
2023-01-15T07:28:48.275Z,6.76
2023-01-15T07:30:52.940Z,6.83
2023-01-15T07:32:57.464Z,6.81
2023-01-15T07:34:59.594Z,6.84
2023-01-15T07:37:04.391Z,6.87
2023-01-15T07:39:08.039Z,6.83
2023-01-15T07:41:23.135Z,6.82
2023-01-15T07:43:40.614Z,6.86
2023-01-15T07:46:10.702Z,6.83
2023-01-15T07:48:26.532Z,6.90
2023-01-15T07:50:28.701Z,6.80
2023-01-15T07:52:30.750Z,6.71
2023-01-15T07:54:52.567Z,6.88
2023-01-15T07:57:37.564Z,6.85
2023-01-15T07:59:39.799Z,6.84
2023-01-15T08:01:44.463Z,6.88
2023-01-15T08:03:49.408Z,6.90
2023-01-15T08:05:51.557Z,6.79
2023-01-15T08:07:53.724Z,6.94
2023-01-15T08:09:55.737Z,6.88
2023-01-15T08:12:17.251Z,6.81
2023-01-15T08:14:33.347Z,6.93
2023-01-15T08:16:37.419Z,6.87
2023-01-15T08:18:40.076Z,7.04
2023-01-15T08:20:47.786Z,7.07
2023-01-15T08:22:55.975Z,7.03
2023-01-15T08:25:06.788Z,7.13
2023-01-15T08:27:26.500Z,7.15
2023-01-15T08:29:31.968Z,7.26
2023-01-15T08:31:35.638Z,7.10
2023-01-15T08:33:42.341Z,7.09
2023-01-15T08:35:46.768Z,7.22
2023-01-15T08:37:52.945Z,7.20
2023-01-15T08:40:03.103Z,7.15
2023-01-15T08:42:05.141Z,7.31
2023-01-15T08:44:12.228Z,7.20
2023-01-15T08:46:17.076Z,7.23
2023-01-15T08:48:19.488Z,7.17
2023-01-15T08:50:28.831Z,7.16
2023-01-15T08:52:30.936Z,7.29
2023-01-15T08:54:33.043Z,7.29
2023-01-15T08:56:37.885Z,7.36
2023-01-15T08:58:40.453Z,7.36
2023-01-15T09:00:49.464Z,7.44
2023-01-15T09:02:53.744Z,7.49
2023-01-15T09:04:58.113Z,7.57
2023-01-15T09:07:15.213Z,7.52
2023-01-15T09:09:25.439Z,7.57
2023-01-15T09:11:35.719Z,7.56
2023-01-15T09:13:44.257Z,7.62
2023-01-15T09:16:59.249Z,7.56
2023-01-15T09:19:48.640Z,7.66
2023-01-15T09:21:51.051Z,7.73
2023-01-15T09:23:53.316Z,7.46
2023-01-15T09:26:00.597Z,7.74
2023-01-15T09:28:05.245Z,7.70
2023-01-15T09:30:17.127Z,7.73
2023-01-15T09:32:20.189Z,7.65
2023-01-15T09:34:23.473Z,7.87
2023-01-15T09:36:28.702Z,7.97
2023-01-15T09:38:35.398Z,7.90
2023-01-15T09:40:47.765Z,7.94
2023-01-15T09:43:07.883Z,7.98
2023-01-15T09:45:44.514Z,8.11
2023-01-15T09:48:12.768Z,8.18
2023-01-15T09:50:42.061Z,8.20
2023-01-15T09:52:52.291Z,8.35
2023-01-15T09:55:05.819Z,8.36
2023-01-15T09:57:19.297Z,8.28
2023-01-15T10:02:33.813Z,8.46
2023-01-15T10:04:43.358Z,8.51
2023-01-15T10:07:10.419Z,8.42
2023-01-15T10:09:27.794Z,8.60
2023-01-15T10:14:46.944Z,8.38
2023-01-15T10:17:02.710Z,8.45
2023-01-15T10:19:08.981Z,8.58
2023-01-15T10:21:53.997Z,8.64
2023-01-15T10:24:38.243Z,8.72
2023-01-15T10:26:54.495Z,8.68
2023-01-15T10:29:07.109Z,8.79
2023-01-15T10:31:20.735Z,8.67
2023-01-15T10:33:25.539Z,8.82
2023-01-15T10:35:43.581Z,9.01
2023-01-15T10:38:24.959Z,9.00
2023-01-15T10:40:38.564Z,9.17
2023-01-15T10:43:16.668Z,9.06
2023-01-15T10:45:24.745Z,9.23
2023-01-15T10:47:37.805Z,9.30
2023-01-15T10:49:53.572Z,9.44
2023-01-15T10:52:12.398Z,9.43
2023-01-15T10:54:33.817Z,9.33
2023-01-15T10:57:16.200Z,9.50
2023-01-15T10:59:45.084Z,9.63
2023-01-15T11:01:56.416Z,9.58
2023-01-15T11:03:59.855Z,9.70
2023-01-15T11:09:32.363Z,9.78
2023-01-15T11:12:08.363Z,9.79
2023-01-15T11:14:47.693Z,9.86
2023-01-15T11:17:02.014Z,9.84
2023-01-15T11:19:15.830Z,9.77
2023-01-15T11:21:20.418Z,9.63
2023-01-15T11:23:23.418Z,9.54
2023-01-15T11:25:28.639Z,9.46
2023-01-15T11:27:33.475Z,9.24
2023-01-15T11:29:37.462Z,9.42
2023-01-15T11:31:41.525Z,9.32
2023-01-15T11:33:54.788Z,9.54
2023-01-15T11:35:59.239Z,9.38
2023-01-15T11:38:15.020Z,9.33
2023-01-15T11:40:23.783Z,9.39
2023-01-15T11:42:35.669Z,9.30
2023-01-15T11:44:48.183Z,9.32
2023-01-15T11:47:04.784Z,9.35
2023-01-15T11:49:19.718Z,9.30
2023-01-15T11:51:21.773Z,9.32
2023-01-15T11:53:29.555Z,9.29
2023-01-15T11:55:31.503Z,9.29
2023-01-15T11:57:37.190Z,9.33
2023-01-15T11:59:39.260Z,9.25
2023-01-15T12:01:54.964Z,9.27
2023-01-15T12:03:59.054Z,9.45
2023-01-15T12:06:05.718Z,9.30
2023-01-15T12:08:37.085Z,9.39
2023-01-15T12:11:06.163Z,9.23
2023-01-15T12:13:18.870Z,9.42
2023-01-15T12:15:29.494Z,9.44
2023-01-15T12:17:51.423Z,9.65
2023-01-15T12:20:00.701Z,9.84
2023-01-15T12:22:03.930Z,9.82
2023-01-15T12:24:22.812Z,9.86
2023-01-15T12:26:38.752Z,9.96
2023-01-15T12:28:53.883Z,9.97
2023-01-15T12:30:59.638Z,10.03
2023-01-15T12:33:14.422Z,10.02
2023-01-15T12:35:33.554Z,10.11
2023-01-15T12:37:45.173Z,10.23
2023-01-15T12:39:52.539Z,10.26
2023-01-15T12:42:09.497Z,10.22
2023-01-15T12:44:20.600Z,10.04
2023-01-15T12:46:29.387Z,10.17
2023-01-15T12:48:47.279Z,10.22
2023-01-15T12:50:51.713Z,10.30
2023-01-15T12:53:03.562Z,10.40
2023-01-15T12:55:15.874Z,10.37
2023-01-15T12:57:31.306Z,10.32
2023-01-15T12:59:37.455Z,10.37
2023-01-15T13:01:59.202Z,10.31
2023-01-15T13:04:23.094Z,10.41
2023-01-15T13:06:28.805Z,10.29
2023-01-15T13:08:51.517Z,10.25
2023-01-15T13:10:53.436Z,10.20
2023-01-15T13:13:02.412Z,9.87
2023-01-15T13:15:05.303Z,9.98
2023-01-15T13:17:23.109Z,9.88
2023-01-15T13:19:44.914Z,9.88
2023-01-15T13:21:53.050Z,9.74
2023-01-15T13:24:13.772Z,9.84
2023-01-15T13:26:42.151Z,9.82
2023-01-15T13:29:00.247Z,10.05
2023-01-15T13:31:20.221Z,10.17
2023-01-15T13:33:32.443Z,10.18
2023-01-15T13:35:43.007Z,10.39
2023-01-15T13:37:49.991Z,10.31
2023-01-15T13:39:57.927Z,10.44
2023-01-15T13:42:10.279Z,10.43
2023-01-15T13:44:23.918Z,10.50
2023-01-15T13:46:25.883Z,10.51
2023-01-15T13:48:36.569Z,10.57
2023-01-15T13:50:43.326Z,10.65
2023-01-15T13:52:46.268Z,10.70
2023-01-15T13:54:48.259Z,10.68
2023-01-15T13:56:50.097Z,10.56
2023-01-15T13:58:55.166Z,10.43
2023-01-15T14:01:16.820Z,10.58
2023-01-15T14:03:30.649Z,10.66
2023-01-15T14:05:34.985Z,10.49
2023-01-15T14:07:37.950Z,10.44
2023-01-15T14:09:39.814Z,10.33
2023-01-15T14:11:56.725Z,10.38
2023-01-15T14:14:14.624Z,10.34
2023-01-15T14:16:29.406Z,10.15
2023-01-15T14:18:41.048Z,10.27
2023-01-15T14:20:56.858Z,10.28
2023-01-15T14:23:12.184Z,10.17
2023-01-15T14:25:20.521Z,10.23
2023-01-15T14:27:31.889Z,10.30
2023-01-15T14:29:43.651Z,10.07
2023-01-15T14:32:00.077Z,9.82
2023-01-15T14:34:13.181Z,10.02
2023-01-15T14:36:24.379Z,10.04
2023-01-15T14:38:28.462Z,10.13
2023-01-15T14:40:33.626Z,10.07
2023-01-15T14:42:50.833Z,10.02
2023-01-15T14:44:59.032Z,10.08
2023-01-15T14:47:04.970Z,9.95
2023-01-15T14:49:28.582Z,9.68
2023-01-15T14:51:46.064Z,9.75
2023-01-15T14:53:53.083Z,9.72
2023-01-15T14:56:07.364Z,9.56
2023-01-15T14:58:26.076Z,9.75
2023-01-15T15:00:35.644Z,9.71
2023-01-15T15:02:42.403Z,9.78
2023-01-15T15:04:45.822Z,9.76
2023-01-15T15:06:54.234Z,9.83
2023-01-15T15:09:02.199Z,9.78
2023-01-15T15:11:26.362Z,9.59
2023-01-15T15:13:34.662Z,9.59
2023-01-15T15:15:48.210Z,9.69
2023-01-15T15:18:03.711Z,9.74
2023-01-15T15:20:20.302Z,9.71
2023-01-15T15:22:26.404Z,9.72
2023-01-15T15:24:33.233Z,9.58
2023-01-15T15:26:37.411Z,9.74
2023-01-15T15:28:39.301Z,9.68
2023-01-15T15:30:45.000Z,9.65
2023-01-15T15:32:47.719Z,9.78
2023-01-15T15:34:53.378Z,9.77
2023-01-15T15:36:58.526Z,9.80
2023-01-15T15:39:16.331Z,9.70
2023-01-15T15:41:38.584Z,9.77
2023-01-15T15:43:58.791Z,9.86
2023-01-15T15:46:11.804Z,9.69
2023-01-15T15:48:29.609Z,9.75
2023-01-15T15:50:35.117Z,9.82
2023-01-15T15:52:44.705Z,9.82
2023-01-15T15:54:57.960Z,9.84
2023-01-15T15:57:09.368Z,9.85
2023-01-15T15:59:19.333Z,9.80
2023-01-15T16:01:21.445Z,9.78
2023-01-15T16:03:26.079Z,9.82
2023-01-15T16:05:31.782Z,9.81
2023-01-15T16:07:34.679Z,9.86
2023-01-15T16:09:36.965Z,9.70
2023-01-15T16:11:40.902Z,9.74
2023-01-15T16:13:46.832Z,9.77
2023-01-15T16:15:51.000Z,9.58
2023-01-15T16:17:53.619Z,9.55
2023-01-15T16:19:57.110Z,9.52
2023-01-15T16:21:59.391Z,9.49
2023-01-15T16:24:04.595Z,9.35
2023-01-15T16:26:20.046Z,9.31
2023-01-15T16:28:25.951Z,9.39
2023-01-15T16:30:32.328Z,9.42
2023-01-15T16:32:37.042Z,9.41
2023-01-15T16:34:39.980Z,9.44
2023-01-15T16:36:45.529Z,9.46
2023-01-15T16:38:50.569Z,9.45
2023-01-15T16:40:53.531Z,9.28
2023-01-15T16:43:05.120Z,9.26
2023-01-15T16:45:26.387Z,9.32
2023-01-15T16:47:31.953Z,9.16
2023-01-15T16:49:34.900Z,9.18
2023-01-15T16:51:42.640Z,9.06
2023-01-15T16:53:44.539Z,9.10
2023-01-15T16:55:47.289Z,9.13
2023-01-15T16:58:08.154Z,9.06
2023-01-15T17:00:30.989Z,9.08
2023-01-15T17:02:42.829Z,9.02
2023-01-15T17:04:46.222Z,8.95
2023-01-15T17:07:00.418Z,9.00
2023-01-15T17:09:02.531Z,9.02
2023-01-15T17:11:06.086Z,8.91
2023-01-15T17:13:19.161Z,8.86
2023-01-15T17:15:21.469Z,8.93
2023-01-15T17:17:24.020Z,9.00
2023-01-15T17:19:25.964Z,8.88
2023-01-15T17:21:29.453Z,8.84
2023-01-15T17:23:35.480Z,8.98
2023-01-15T17:25:37.859Z,8.96
2023-01-15T17:27:39.739Z,8.94
2023-01-15T17:29:41.660Z,8.78
2023-01-15T17:31:45.892Z,8.73
2023-01-15T17:33:47.791Z,8.65
2023-01-15T17:35:49.741Z,8.71
2023-01-15T17:37:52.015Z,8.61
2023-01-15T17:39:54.331Z,8.53
2023-01-15T17:41:56.889Z,8.64
2023-01-15T17:43:59.238Z,8.53
2023-01-15T17:46:01.333Z,8.54
2023-01-15T17:48:04.247Z,8.45
2023-01-15T17:50:06.804Z,8.46
2023-01-15T17:52:18.500Z,8.51
2023-01-15T17:54:40.314Z,8.39
2023-01-15T17:56:51.845Z,8.48
2023-01-15T17:59:03.619Z,8.43
2023-01-15T18:01:24.792Z,8.33
2023-01-15T18:03:37.344Z,8.41
2023-01-15T18:05:40.389Z,8.29
2023-01-15T18:07:43.429Z,8.34
2023-01-15T18:09:45.562Z,8.26
2023-01-15T18:11:47.609Z,8.22
2023-01-15T18:13:49.662Z,8.16
2023-01-15T18:15:53.785Z,8.16
2023-01-15T18:17:56.067Z,8.10
2023-01-15T18:19:57.970Z,8.14
2023-01-15T18:21:59.860Z,8.00
2023-01-15T18:24:01.832Z,8.03
2023-01-15T18:26:05.428Z,8.05
2023-01-15T18:28:07.299Z,7.98
2023-01-15T18:30:12.141Z,7.85
2023-01-15T18:32:14.213Z,7.98
2023-01-15T18:34:16.204Z,7.99
2023-01-15T18:36:18.052Z,7.97
2023-01-15T18:38:19.903Z,7.89
2023-01-15T18:40:26.860Z,7.88
2023-01-15T18:42:38.903Z,7.95
2023-01-15T18:44:50.611Z,8.04
2023-01-15T18:46:56.743Z,7.79
2023-01-15T18:48:58.630Z,8.03
2023-01-15T18:51:09.144Z,7.85
2023-01-15T18:53:12.846Z,7.91
2023-01-15T18:55:14.870Z,7.98
2023-01-15T18:57:16.959Z,8.03
2023-01-15T18:59:18.869Z,7.96
2023-01-15T19:01:20.818Z,7.80
2023-01-15T19:03:22.890Z,7.70
2023-01-15T19:05:25.202Z,7.85
2023-01-15T19:07:27.234Z,7.88
2023-01-15T19:09:29.504Z,7.89
2023-01-15T19:11:31.853Z,7.92
2023-01-15T19:13:33.783Z,7.88
2023-01-15T19:15:45.218Z,7.83
2023-01-15T19:17:57.293Z,7.73
2023-01-15T19:19:59.231Z,7.72
2023-01-15T19:22:10.654Z,7.74
2023-01-15T19:24:13.078Z,7.61
2023-01-15T19:26:16.678Z,7.68
2023-01-15T19:28:20.795Z,7.70
2023-01-15T19:30:23.498Z,7.68
2023-01-15T19:32:25.362Z,7.57
2023-01-15T19:34:34.832Z,7.59
2023-01-15T19:36:36.872Z,7.53
2023-01-15T19:38:41.444Z,7.43
2023-01-15T19:40:43.718Z,7.53
2023-01-15T19:42:54.680Z,7.50
2023-01-15T19:45:05.584Z,7.53
2023-01-15T19:47:22.573Z,7.40
2023-01-15T19:49:34.567Z,7.38
2023-01-15T19:51:45.654Z,7.43
2023-01-15T19:53:47.648Z,7.42
2023-01-15T19:55:49.683Z,7.37
2023-01-15T19:58:02.383Z,7.46
2023-01-15T20:00:06.443Z,7.40
2023-01-15T20:02:08.296Z,7.40
2023-01-15T20:04:10.164Z,7.48
2023-01-15T20:06:12.064Z,7.57
2023-01-15T20:08:17.003Z,7.47
2023-01-15T20:10:21.375Z,7.48
2023-01-15T20:12:32.717Z,7.55
2023-01-15T20:14:34.615Z,7.64
2023-01-15T20:16:36.532Z,7.68
2023-01-15T20:18:38.699Z,7.77
2023-01-15T20:20:41.176Z,7.85
2023-01-15T20:22:43.071Z,7.82
2023-01-15T20:24:44.999Z,7.90
2023-01-15T20:26:46.934Z,7.81
2023-01-15T20:28:50.674Z,7.77
2023-01-15T20:30:55.664Z,7.74
2023-01-15T20:32:59.443Z,7.86
2023-01-15T20:35:01.612Z,7.88
2023-01-15T20:37:03.449Z,7.91
2023-01-15T20:39:05.671Z,7.95
2023-01-15T20:41:29.618Z,7.88
2023-01-15T20:43:42.910Z,7.94
2023-01-15T20:45:44.903Z,7.91
2023-01-15T20:47:56.615Z,7.86
2023-01-15T20:49:58.490Z,7.87
2023-01-15T20:52:01.495Z,7.77
2023-01-15T20:54:03.482Z,7.72
2023-01-15T20:56:13.178Z,7.62
2023-01-15T20:58:15.698Z,7.62
2023-01-15T21:00:20.581Z,7.64
2023-01-15T21:02:22.714Z,7.62
2023-01-15T21:04:24.601Z,7.64
2023-01-15T21:06:26.572Z,7.54
2023-01-15T21:08:29.940Z,7.60
2023-01-15T21:10:31.797Z,7.67
2023-01-15T21:12:33.672Z,7.66
2023-01-15T21:14:35.659Z,7.66
2023-01-15T21:16:37.671Z,7.62
2023-01-15T21:18:43.261Z,7.73
2023-01-15T21:20:45.193Z,7.75
2023-01-15T21:22:47.648Z,7.76
2023-01-15T21:24:51.468Z,7.73
2023-01-15T21:26:53.424Z,7.78
2023-01-15T21:28:56.129Z,7.73
2023-01-15T21:30:58.691Z,7.71
2023-01-15T21:33:00.548Z,7.72
2023-01-15T21:35:02.395Z,7.62
2023-01-15T21:37:04.243Z,7.39
2023-01-15T21:39:06.125Z,7.45
2023-01-15T21:41:09.252Z,7.37
2023-01-15T21:43:21.719Z,7.41
2023-01-15T21:45:23.658Z,7.39
2023-01-15T21:47:26.689Z,7.31
2023-01-15T21:49:29.228Z,7.39
2023-01-15T21:51:31.057Z,7.31
2023-01-15T21:53:33.396Z,7.20
2023-01-15T21:55:35.291Z,7.34
2023-01-15T21:57:38.406Z,7.33
2023-01-15T21:59:41.239Z,7.14
2023-01-15T22:01:43.316Z,7.19
2023-01-15T22:03:46.096Z,7.15
2023-01-15T22:05:48.179Z,7.18
2023-01-15T22:07:49.969Z,7.28
2023-01-15T22:09:51.970Z,7.29
2023-01-15T22:11:53.869Z,7.21
2023-01-15T22:13:55.705Z,7.33
2023-01-15T22:15:57.717Z,7.44
2023-01-15T22:17:59.679Z,7.47
2023-01-15T22:20:01.604Z,7.50
2023-01-15T22:22:08.690Z,7.41
2023-01-15T22:24:10.614Z,7.43
2023-01-15T22:26:18.580Z,7.39
2023-01-15T22:28:21.029Z,7.39
2023-01-15T22:30:22.816Z,7.34
2023-01-15T22:32:24.645Z,7.42
2023-01-15T22:34:28.030Z,7.49
2023-01-15T22:36:29.830Z,7.48
2023-01-15T22:38:31.763Z,7.43
2023-01-15T22:40:33.795Z,7.44
2023-01-15T22:42:35.565Z,7.45
2023-01-15T22:44:37.635Z,7.50
2023-01-15T22:46:39.575Z,7.49
2023-01-15T22:48:41.361Z,7.44
2023-01-15T22:50:43.251Z,7.47
2023-01-15T22:52:45.113Z,7.40
2023-01-15T22:54:47.479Z,7.52
2023-01-15T22:56:49.395Z,7.41
2023-01-15T22:58:55.523Z,7.50
2023-01-15T23:00:57.605Z,7.48
2023-01-15T23:03:08.902Z,7.39
2023-01-15T23:05:11.724Z,7.53
2023-01-15T23:07:13.518Z,7.48
2023-01-15T23:09:15.395Z,7.51
2023-01-15T23:11:17.301Z,7.54
2023-01-15T23:13:19.226Z,7.63
2023-01-15T23:15:21.125Z,7.63
2023-01-15T23:17:22.964Z,7.70
2023-01-15T23:19:27.709Z,7.73
2023-01-15T23:21:30.465Z,7.79
2023-01-15T23:23:32.662Z,7.73
2023-01-15T23:25:34.482Z,7.81
2023-01-15T23:27:36.579Z,7.74
2023-01-15T23:29:38.475Z,7.85
2023-01-15T23:31:40.496Z,7.87
2023-01-15T23:33:42.459Z,7.86
2023-01-15T23:35:46.290Z,7.97
2023-01-15T23:37:48.199Z,7.84
2023-01-15T23:39:50.020Z,7.92
2023-01-15T23:42:01.805Z,7.95
2023-01-15T23:44:13.872Z,7.99
2023-01-15T23:46:25.980Z,8.01
2023-01-15T23:48:27.834Z,8.11
2023-01-15T23:50:29.798Z,8.09
2023-01-15T23:52:31.969Z,8.14
2023-01-15T23:54:33.749Z,8.16
2023-01-15T23:56:36.781Z,8.14
2023-01-15T23:58:38.576Z,8.02
